Time;durP1;ratioP1;P1;durP2;ratioP2;P2;SDS_P1;SDS_P2;PMS_P1;PMS_P2;Temp;Humidity;BMP_temperature;BMP_pressure;BME280_temperature;BME280_humidity;BME280_pressure;Samples;Min_cycle;Max_cycle;Signal;HPM_P1;HPM_P2
2024/01/12 00:01:29;;;;;;;54.58;37.42;;;;;;;16.14;37.28;94044.94;4858834;29;20578;-89
2024/01/12 00:03:55;;;;;;;63.83;40.72;;;;;;;16.04;38.00;94045.06;4867399;29;20563;-91
2024/01/12 00:06:20;;;;;;;56.15;39.08;;;;;;;16.08;37.87;94031.97;4875631;29;20503;-90
2024/01/12 00:08:45;;;;;;;58.28;38.25;;;;;;;16.15;37.34;94039.00;4872170;29;20088;-91
2024/01/12 00:11:11;;;;;;;58.20;39.30;;;;;;;16.17;37.42;94043.97;4892197;29;20036;-89
2024/01/12 00:13:38;;;;;;;50.45;35.33;;;;;;;16.15;37.58;94032.78;4877953;29;20067;-88
2024/01/12 00:16:07;;;;;;;61.05;38.05;;;;;;;16.22;37.54;94033.13;4873548;29;20046;-88
2024/01/12 00:18:33;;;;;;;57.38;37.67;;;;;;;16.23;37.14;94036.59;4879771;29;20693;-88
2024/01/12 00:20:58;;;;;;;56.20;37.72;;;;;;;16.19;37.39;94036.06;4862003;29;20052;-90
2024/01/12 00:23:24;;;;;;;56.42;37.83;;;;;;;16.21;37.08;94037.09;4891166;29;20498;-88
2024/01/12 00:25:49;;;;;;;55.90;35.85;;;;;;;16.20;37.34;94038.31;4895587;29;20061;-91
2024/01/12 00:28:14;;;;;;;53.22;34.28;;;;;;;16.16;37.41;94026.84;4905346;29;20036;-88
2024/01/12 00:30:40;;;;;;;53.00;35.63;;;;;;;16.19;37.58;94022.41;4908558;29;20486;-88
2024/01/12 00:33:05;;;;;;;54.72;35.75;;;;;;;16.20;37.39;94027.41;4892471;29;20100;-87
2024/01/12 00:35:31;;;;;;;56.03;37.05;;;;;;;16.17;37.26;94022.91;4889858;29;20048;-89
2024/01/12 00:37:57;;;;;;;51.03;33.85;;;;;;;16.21;37.35;94019.97;4879149;29;20040;-90
2024/01/12 00:40:22;;;;;;;53.63;35.28;;;;;;;16.16;37.28;94026.84;4898208;29;20109;-87
2024/01/12 00:42:50;;;;;;;53.42;36.45;;;;;;;16.18;37.32;94015.47;4866595;29;20044;-91
2024/01/12 00:45:15;;;;;;;55.80;37.10;;;;;;;16.23;37.34;94022.97;4911428;29;20414;-88
2024/01/12 00:47:41;;;;;;;53.25;36.65;;;;;;;16.17;37.36;94022.16;4875671;29;20068;-91
2024/01/12 00:50:07;;;;;;;55.17;36.97;;;;;;;16.20;37.41;94030.13;4890673;29;20044;-89
2024/01/12 00:52:32;;;;;;;57.00;36.15;;;;;;;16.21;37.25;94037.09;4877511;29;20037;-89
2024/01/12 00:54:59;;;;;;;54.25;35.47;;;;;;;16.18;37.41;94029.09;4895407;29;20044;-89
2024/01/12 00:57:25;;;;;;;50.72;34.72;;;;;;;16.12;37.59;94034.50;4895358;29;20065;-88
2024/01/12 00:59:50;;;;;;;46.65;32.97;;;;;;;16.23;37.27;94037.34;4881200;29;20622;-90
2024/01/12 01:02:16;;;;;;;52.88;33.70;;;;;;;16.21;37.33;94034.34;4910836;29;20131;-89
2024/01/12 01:04:41;;;;;;;47.53;31.05;;;;;;;16.21;37.46;94028.16;4893693;29;20436;-89
2024/01/12 01:07:06;;;;;;;45.42;29.40;;;;;;;16.20;37.17;94030.13;4870041;29;20052;-92
2024/01/12 01:09:32;;;;;;;47.25;33.20;;;;;;;16.17;37.46;94036.53;4894917;29;20545;-91
2024/01/12 01:12:00;;;;;;;51.38;30.77;;;;;;;16.15;37.07;94036.28;4862187;29;20047;-89
2024/01/12 01:14:26;;;;;;;53.50;34.45;;;;;;;16.14;37.66;94039.47;4896858;29;20032;-87
2024/01/12 01:16:52;;;;;;;47.45;32.28;;;;;;;16.22;37.19;94048.75;4896795;29;20354;-88
2024/01/12 01:19:17;;;;;;;44.00;30.88;;;;;;;16.16;37.52;94042.47;4880238;29;20051;-88
2024/01/12 01:21:43;;;;;;;48.75;31.17;;;;;;;16.25;37.19;94048.50;4895214;29;20047;-91
2024/01/12 01:24:08;;;;;;;51.97;33.38;;;;;;;16.24;37.46;94051.75;4895389;29;20040;-90
2024/01/12 01:26:34;;;;;;;47.58;32.70;;;;;;;16.22;37.21;94049.50;4895537;29;20040;-88
2024/01/12 01:28:59;;;;;;;46.38;30.73;;;;;;;16.23;37.18;94044.78;4895496;29;20051;-88
2024/01/12 01:31:25;;;;;;;47.25;30.60;;;;;;;16.30;36.88;94053.28;4911224;29;20100;-88
2024/01/12 01:33:50;;;;;;;42.92;29.70;;;;;;;16.30;37.01;94049.81;4893007;29;20040;-88
2024/01/12 01:36:16;;;;;;;45.38;30.50;;;;;;;16.27;37.15;94056.97;4876337;29;20060;-89
2024/01/12 01:38:41;;;;;;;44.15;30.08;;;;;;;16.17;37.16;94050.19;4903060;29;20041;-88
2024/01/12 01:41:07;;;;;;;43.25;30.08;;;;;;;16.22;37.29;94059.66;4895713;29;20483;-92
2024/01/12 01:43:32;;;;;;;43.22;28.15;;;;;;;16.25;37.03;94067.59;4895857;29;20044;-87
2024/01/12 01:45:58;;;;;;;39.05;27.70;;;;;;;16.17;37.49;94052.16;4895576;29;20059;-88
2024/01/12 01:48:23;;;;;;;45.33;30.08;;;;;;;16.18;37.48;94062.59;4878419;29;20048;-88
2024/01/12 01:50:49;;;;;;;44.05;29.25;;;;;;;16.18;37.22;94051.69;4895452;29;20096;-91
2024/01/12 01:53:14;;;;;;;39.45;28.42;;;;;;;16.18;37.42;94054.41;4872849;29;20515;-92
2024/01/12 01:55:40;;;;;;;40.58;28.35;;;;;;;16.20;37.12;94054.69;4892547;29;20047;-90
2024/01/12 01:58:05;;;;;;;39.00;28.45;;;;;;;16.19;37.09;94055.91;4897753;29;20049;-87
2024/01/12 02:00:31;;;;;;;41.63;28.02;;;;;;;16.18;37.69;94061.84;4891642;29;20036;-89
2024/01/12 02:02:56;;;;;;;42.33;29.52;;;;;;;16.22;37.25;94071.31;4861300;29;20051;-88
2024/01/12 02:05:22;;;;;;;36.50;25.65;;;;;;;16.29;37.13;94061.94;4860816;29;20053;-89
2024/01/12 02:07:47;;;;;;;42.22;28.63;;;;;;;16.25;36.97;94072.31;4884991;29;20450;-92
2024/01/12 02:10:13;;;;;;;37.67;28.52;;;;;;;16.17;37.29;94072.00;4909609;29;20047;-89
2024/01/12 02:12:38;;;;;;;38.72;27.45;;;;;;;16.20;37.28;94079.22;4894390;29;20048;-89
2024/01/12 02:15:07;;;;;;;41.08;27.17;;;;;;;16.25;37.02;94077.75;4905659;29;20516;-90
2024/01/12 02:17:35;;;;;;;35.72;25.75;;;;;;;16.22;37.21;94078.75;4905838;29;20036;-86
2024/01/12 02:20:03;;;;;;;40.67;26.08;;;;;;;16.25;37.12;94083.22;4910077;29;20095;-88
2024/01/12 02:22:28;;;;;;;39.30;26.15;;;;;;;16.24;37.10;94079.75;4909479;29;20088;-89
2024/01/12 02:24:54;;;;;;;35.38;24.83;;;;;;;16.25;37.22;94072.31;4879194;29;20052;-87
2024/01/12 02:27:21;;;;;;;37.25;26.10;;;;;;;16.15;37.56;94070.97;4909954;29;20033;-87
2024/01/12 02:29:48;;;;;;;36.03;25.77;;;;;;;16.19;37.12;94071.53;4879026;29;20044;-88
2024/01/12 02:32:14;;;;;;;36.35;25.48;;;;;;;16.20;37.51;94060.13;4878673;29;20391;-88
2024/01/12 02:34:40;;;;;;;34.17;25.23;;;;;;;16.21;36.70;94067.09;4890553;29;20131;-88
2024/01/12 02:37:05;;;;;;;35.58;24.17;;;;;;;16.26;36.92;94060.91;4877417;29;20055;-90
2024/01/12 02:39:31;;;;;;;33.08;23.65;;;;;;;16.17;37.35;94077.47;4883674;29;20052;-89
2024/01/12 02:41:57;;;;;;;34.92;24.13;;;;;;;16.17;36.88;94076.72;4878715;29;20048;-89
2024/01/12 02:44:26;;;;;;;32.95;22.80;;;;;;;16.23;37.12;94064.63;4878480;29;20123;-88
2024/01/12 02:46:51;;;;;;;34.00;24.73;;;;;;;16.06;37.59;94069.88;4893816;29;20099;-93
2024/01/12 02:49:16;;;;;;;36.10;24.70;;;;;;;16.15;37.44;94085.38;4898606;29;20380;-87
2024/01/12 02:51:42;;;;;;;33.17;23.13;;;;;;;16.19;37.54;94077.72;4903063;29;20052;-90
2024/01/12 02:54:07;;;;;;;36.80;24.50;;;;;;;16.12;37.45;94075.41;4893546;29;20044;-89
2024/01/12 02:56:32;;;;;;;35.72;24.20;;;;;;;16.16;37.29;94075.22;4894345;29;20040;-90
2024/01/12 02:58:58;;;;;;;36.22;24.27;;;;;;;16.11;37.58;94063.75;4892816;29;20401;-88
2024/01/12 03:01:23;;;;;;;39.88;24.33;;;;;;;16.16;37.21;94062.31;4883961;29;20555;-88
2024/01/12 03:03:49;;;;;;;34.92;24.38;;;;;;;16.22;37.58;94067.84;4902892;29;20068;-90
2024/01/12 03:06:14;;;;;;;32.88;22.80;;;;;;;16.25;37.08;94061.41;4875086;29;20420;-88
2024/01/12 03:08:40;;;;;;;34.83;23.13;;;;;;;16.27;37.05;94058.94;4891151;29;20108;-88
2024/01/12 03:11:06;;;;;;;35.17;24.35;;;;;;;16.27;37.13;94070.59;4890213;29;20040;-88
2024/01/12 03:13:33;;;;;;;34.90;23.85;;;;;;;16.17;37.46;94072.00;4875763;29;20040;-88
2024/01/12 03:15:58;;;;;;;31.90;23.15;;;;;;;16.27;36.91;94064.41;4909688;29;20055;-88
2024/01/12 03:18:24;;;;;;;30.15;21.65;;;;;;;16.22;37.38;94060.41;4889468;29;20080;-90
2024/01/12 03:20:49;;;;;;;29.90;21.85;;;;;;;16.23;37.13;94061.91;4874657;29;20047;-89
2024/01/12 03:23:15;;;;;;;32.53;22.17;;;;;;;16.23;37.24;94059.19;4886528;29;20051;-88
2024/01/12 03:25:41;;;;;;;34.78;22.27;;;;;;;16.19;37.33;94063.34;4890813;29;20040;-88
2024/01/12 03:28:08;;;;;;;29.38;22.05;;;;;;;16.18;37.52;94056.38;4874470;29;20032;-88
2024/01/12 03:30:34;;;;;;;32.05;21.25;;;;;;;16.20;37.17;94046.50;4874287;29;20067;-89
2024/01/12 03:33:02;;;;;;;30.88;20.48;;;;;;;16.22;37.43;94049.50;4893232;29;20426;-87
2024/01/12 03:35:27;;;;;;;30.13;21.48;;;;;;;16.22;37.01;94046.75;4877882;29;20054;-90
2024/01/12 03:37:53;;;;;;;30.98;20.67;;;;;;;16.25;37.10;94048.50;4894000;29;20044;-88
2024/01/12 03:40:19;;;;;;;30.48;21.80;;;;;;;16.25;36.99;94047.75;4893254;29;20052;-88
2024/01/12 03:42:44;;;;;;;30.77;21.00;;;;;;;16.19;37.50;94053.19;4892943;29;20052;-90
2024/01/12 03:45:10;;;;;;;32.03;20.75;;;;;;;16.23;36.87;94048.25;4876966;29;20040;-87
2024/01/12 03:47:37;;;;;;;29.08;21.63;;;;;;;16.18;37.49;94048.94;4884180;29;20041;-87
2024/01/12 03:50:02;;;;;;;27.13;19.77;;;;;;;16.19;37.19;94047.72;4863103;29;20045;-90
2024/01/12 03:52:28;;;;;;;29.88;20.75;;;;;;;16.10;37.63;94040.44;4881870;29;20047;-91
2024/01/12 03:54:53;;;;;;;29.42;20.05;;;;;;;16.22;37.27;94044.03;4877227;29;20104;-89
2024/01/12 03:57:19;;;;;;;27.77;20.25;;;;;;;16.15;37.62;94047.19;4877513;29;20044;-88
2024/01/12 03:59:44;;;;;;;27.65;19.70;;;;;;;16.14;37.51;94028.56;4892769;29;20823;-89
2024/01/12 04:02:11;;;;;;;31.23;20.90;;;;;;;16.19;37.33;94042.28;4889147;29;20509;-89
2024/01/12 04:04:36;;;;;;;29.15;20.08;;;;;;;16.22;37.17;94035.84;4874744;29;20063;-88
2024/01/12 04:07:02;;;;;;;29.05;20.60;;;;;;;16.24;36.97;94038.81;4875144;29;20504;-89
2024/01/12 04:09:27;;;;;;;25.33;18.10;;;;;;;16.24;37.16;94043.56;4874698;29;20070;-89
2024/01/12 04:11:53;;;;;;;24.65;18.52;;;;;;;16.15;37.28;94040.97;4892232;29;20055;-88
2024/01/12 04:14:18;;;;;;;24.05;18.88;;;;;;;16.20;37.40;94046.50;4892161;29;20104;-89
2024/01/12 04:16:44;;;;;;;25.88;18.75;;;;;;;16.20;37.12;94040.28;4909150;29;20453;-89
2024/01/12 04:19:09;;;;;;;27.50;18.73;;;;;;;16.17;37.52;94043.97;4880795;29;20036;-90
2024/01/12 04:21:35;;;;;;;27.15;19.27;;;;;;;16.21;37.25;94047.25;4896721;29;20039;-91
2024/01/12 04:24:01;;;;;;;28.80;18.52;;;;;;;16.18;37.52;94054.41;4896380;29;20159;-88
2024/01/12 04:26:26;;;;;;;26.17;17.63;;;;;;;16.15;37.30;94049.16;4912289;29;20506;-88
2024/01/12 04:28:51;;;;;;;23.95;16.95;;;;;;;16.16;37.12;94059.59;4894518;29;20041;-89
2024/01/12 04:31:17;;;;;;;27.25;17.95;;;;;;;16.18;37.59;94064.56;4884917;29;20486;-92
2024/01/12 04:33:42;;;;;;;26.30;17.77;;;;;;;16.16;37.21;94058.84;4878095;29;20080;-92
2024/01/12 04:36:08;;;;;;;25.70;17.55;;;;;;;16.15;37.48;94074.47;4861508;29;20052;-91
2024/01/12 04:38:33;;;;;;;26.08;17.20;;;;;;;16.12;37.35;94072.69;4877949;29;20052;-88
2024/01/12 04:40:58;;;;;;;25.25;17.23;;;;;;;16.08;37.36;94081.06;4895822;29;20479;-92
2024/01/12 04:43:24;;;;;;;25.83;17.50;;;;;;;16.14;37.53;94075.69;4911808;29;20040;-87
2024/01/12 04:45:51;;;;;;;26.73;17.90;;;;;;;16.14;37.44;94077.66;4881047;29;20044;-91
2024/01/12 04:48:17;;;;;;;24.52;17.55;;;;;;;16.13;37.48;94073.44;4892795;29;20091;-88
2024/01/12 04:50:42;;;;;;;25.60;17.67;;;;;;;16.14;37.30;94077.66;4891216;29;20040;-90
2024/01/12 04:53:08;;;;;;;26.10;17.45;;;;;;;16.19;37.44;94076.97;4896297;29;20051;-88
2024/01/12 04:55:33;;;;;;;27.00;18.80;;;;;;;16.13;37.18;94085.09;4896047;29;20044;-91
2024/01/12 04:57:59;;;;;;;25.70;17.67;;;;;;;16.02;37.75;94082.25;4896590;29;20075;-88
2024/01/12 05:00:25;;;;;;;24.08;17.70;;;;;;;16.11;37.74;94082.09;4902198;29;20558;-88
2024/01/12 05:02:51;;;;;;;23.13;16.85;;;;;;;16.16;37.95;94086.88;4883234;29;20052;-90
2024/01/12 05:05:16;;;;;;;23.33;16.80;;;;;;;16.09;37.26;94077.13;4877464;29;20100;-88
2024/01/12 05:07:42;;;;;;;25.02;17.73;;;;;;;16.12;37.59;94072.69;4878086;29;20056;-88
2024/01/12 05:10:08;;;;;;;27.17;18.58;;;;;;;16.05;37.57;94075.81;4861834;29;20043;-90
2024/01/12 05:12:35;;;;;;;22.70;16.73;;;;;;;16.13;37.44;94087.06;4875346;29;20067;-90
2024/01/12 05:15:01;;;;;;;24.15;17.38;;;;;;;16.16;37.62;94088.84;4870696;29;20044;-88
2024/01/12 05:17:27;;;;;;;25.55;16.92;;;;;;;16.16;37.16;94094.31;4911837;29;20040;-90
2024/01/12 05:19:52;;;;;;;22.02;16.80;;;;;;;16.12;37.72;94091.78;4880767;29;20265;-88
2024/01/12 05:22:17;;;;;;;24.52;18.05;;;;;;;16.16;37.32;94084.13;4876139;29;20037;-88
2024/01/12 05:24:43;;;;;;;22.60;16.48;;;;;;;16.17;37.67;94084.88;4896941;29;20041;-88
2024/01/12 05:27:08;;;;;;;22.85;15.65;;;;;;;16.10;37.33;94097.72;4892606;29;20590;-88
2024/01/12 05:29:34;;;;;;;22.13;15.02;;;;;;;16.13;37.58;94090.53;4896622;29;20068;-91
2024/01/12 05:32:03;;;;;;;22.13;15.70;;;;;;;16.09;37.71;94095.47;4893863;29;20052;-88
2024/01/12 05:34:28;;;;;;;24.05;16.17;;;;;;;16.18;37.41;94102.75;4877207;29;20100;-88
2024/01/12 05:36:54;;;;;;;23.88;14.63;;;;;;;16.10;37.45;94113.31;4906267;29;20051;-89
2024/01/12 05:39:19;;;;;;;17.88;12.88;;;;;;;16.07;37.58;94114.28;4877838;29;20041;-93
2024/01/12 05:41:44;;;;;;;17.60;13.05;;;;;;;16.14;37.79;94108.41;4903549;29;20044;-87
2024/01/12 05:44:11;;;;;;;17.77;13.07;;;;;;;16.17;37.58;94107.47;4879739;29;20062;-87
2024/01/12 05:46:36;;;;;;;19.20;12.85;;;;;;;16.09;37.42;94100.91;4880064;29;20072;-89
2024/01/12 05:49:04;;;;;;;19.48;12.90;;;;;;;16.13;37.32;94109.63;4879342;29;20044;-90
2024/01/12 05:51:30;;;;;;;15.90;11.77;;;;;;;16.14;37.56;94099.47;4895349;29;20051;-87
2024/01/12 05:53:55;;;;;;;16.48;11.73;;;;;;;16.11;37.68;94104.66;4895235;29;20041;-90
2024/01/12 05:56:21;;;;;;;16.00;11.32;;;;;;;16.08;37.76;94108.34;4894788;29;20047;-87
2024/01/12 05:58:46;;;;;;;15.75;11.68;;;;;;;16.06;37.86;94115.50;4895359;29;20406;-92
2024/01/12 06:01:12;;;;;;;15.98;11.00;;;;;;;16.09;37.62;94112.56;4881422;29;20040;-90
2024/01/12 06:03:37;;;;;;;16.13;10.55;;;;;;;16.17;37.47;94114.91;4883617;29;20059;-88
2024/01/12 06:06:03;;;;;;;17.75;11.75;;;;;;;16.09;37.62;94114.53;4875451;29;20131;-88
2024/01/12 06:08:29;;;;;;;14.85;10.98;;;;;;;16.11;37.74;94118.31;4879177;29;20048;-88
2024/01/12 06:10:54;;;;;;;15.95;10.38;;;;;;;16.13;37.69;94106.91;4894233;29;20070;-92
2024/01/12 06:13:19;;;;;;;12.88;9.98;;;;;;;16.14;37.40;94118.56;4878740;29;20036;-89
2024/01/12 06:15:46;;;;;;;17.30;10.65;;;;;;;16.11;37.61;94117.56;4910400;29;20044;-92
2024/01/12 06:18:11;;;;;;;14.10;10.30;;;;;;;16.10;38.21;94119.53;4874859;29;20081;-89
2024/01/12 06:20:37;;;;;;;13.98;9.70;;;;;;;16.17;37.43;94120.34;4876397;29;20060;-89
2024/01/12 06:23:02;;;;;;;12.95;9.25;;;;;;;16.05;37.65;94117.47;4875525;29;20104;-90
2024/01/12 06:25:29;;;;;;;13.75;9.35;;;;;;;16.14;37.57;94121.31;4903312;29;20464;-87
2024/01/12 06:27:55;;;;;;;14.32;9.32;;;;;;;16.11;37.42;94123.00;4879275;29;20044;-88
2024/01/12 06:30:20;;;;;;;13.35;9.40;;;;;;;16.13;37.56;94117.06;4878466;29;20260;-90
2024/01/12 06:32:46;;;;;;;12.43;8.75;;;;;;;16.11;37.69;94118.31;4879675;29;20051;-88
2024/01/12 06:35:11;;;;;;;13.93;8.43;;;;;;;16.09;37.79;94112.56;4875553;29;20064;-89
2024/01/12 06:37:37;;;;;;;12.20;8.38;;;;;;;16.03;37.75;94121.91;4897260;29;20048;-90
2024/01/12 06:40:04;;;;;;;10.85;8.38;;;;;;;16.03;37.80;94111.00;4877722;29;20087;-87
2024/01/12 06:42:30;;;;;;;13.07;9.15;;;;;;;16.14;37.57;94121.31;4910398;29;20052;-88
2024/01/12 06:44:55;;;;;;;12.13;8.02;;;;;;;16.18;37.29;94116.41;4894431;29;20447;-88
2024/01/12 06:47:21;;;;;;;10.98;7.43;;;;;;;16.17;37.72;94114.91;4893665;29;20620;-89
2024/01/12 06:49:46;;;;;;;11.50;7.57;;;;;;;16.13;37.34;94119.81;4884937;29;20033;-88
2024/01/12 06:52:12;;;;;;;10.30;7.30;;;;;;;16.17;37.25;94112.91;4874887;29;20036;-88
2024/01/12 06:54:37;;;;;;;11.30;8.02;;;;;;;16.20;37.38;94117.41;4879330;29;20052;-88
2024/01/12 06:57:03;;;;;;;13.43;8.50;;;;;;;16.16;37.56;94127.78;4891682;29;20077;-91
2024/01/12 06:59:28;;;;;;;10.35;7.72;;;;;;;16.23;37.31;94121.16;4870845;29;20541;-88
2024/01/12 07:01:54;;;;;;;10.38;7.53;;;;;;;16.16;37.23;94125.06;4874769;29;20053;-88
2024/01/12 07:04:19;;;;;;;10.25;7.10;;;;;;;16.21;37.58;94123.63;4859100;29;20044;-92
2024/01/12 07:06:45;;;;;;;8.85;6.80;;;;;;;16.21;37.48;94123.63;4891920;29;20059;-91
2024/01/12 07:09:12;;;;;;;9.65;7.20;;;;;;;16.22;37.43;94119.66;4880079;29;20528;-89
2024/01/12 07:11:41;;;;;;;9.20;6.78;;;;;;;16.11;37.63;94125.72;4878976;29;20052;-89
2024/01/12 07:14:07;;;;;;;9.77;6.70;;;;;;;16.08;37.80;94123.97;4891539;29;20418;-89
2024/01/12 07:16:33;;;;;;;8.63;6.90;;;;;;;16.03;37.62;94117.19;4888701;29;20044;-88
2024/01/12 07:18:58;;;;;;;8.93;6.45;;;;;;;16.13;37.65;94122.53;4893670;29;20043;-88
2024/01/12 07:21:26;;;;;;;8.77;6.43;;;;;;;16.21;37.17;94124.38;4877455;29;20044;-88
2024/01/12 07:23:51;;;;;;;7.03;5.53;;;;;;;16.13;37.56;94131.47;4891900;29;20144;-89
2024/01/12 07:26:16;;;;;;;51.20;42.25;;;;;;;16.19;37.57;94124.09;4878419;29;20032;-87
2024/01/12 07:28:42;;;;;;;18.10;15.40;;;;;;;16.18;37.39;94130.78;4901942;29;20088;-91
2024/01/12 07:31:07;;;;;;;9.02;6.93;;;;;;;16.14;37.27;94134.94;4897428;29;20051;-91
2024/01/12 07:33:33;;;;;;;11.93;7.47;;;;;;;16.13;37.34;94123.28;4890438;29;20052;-91
2024/01/12 07:35:59;;;;;;;9.43;6.93;;;;;;;16.07;37.74;94133.38;4874910;29;20059;-91
2024/01/12 07:38:24;;;;;;;9.30;6.80;;;;;;;16.07;37.50;94134.13;4891351;29;20213;-90
2024/01/12 07:40:50;;;;;;;9.57;6.63;;;;;;;16.08;37.54;94123.97;4887687;29;20087;-92
2024/01/12 07:43:15;;;;;;;10.15;7.00;;;;;;;16.14;37.63;94140.41;4889036;29;20124;-88
2024/01/12 07:45:41;;;;;;;9.90;6.82;;;;;;;16.11;37.43;94137.41;4890305;29;20056;-89
2024/01/12 07:48:07;;;;;;;10.05;6.78;;;;;;;16.11;37.58;94139.38;4886055;29;20107;-88
2024/01/12 07:50:33;;;;;;;8.98;7.10;;;;;;;16.18;37.72;94151.84;4857663;29;20044;-88
2024/01/12 07:53:00;;;;;;;8.45;6.40;;;;;;;16.20;37.59;94150.16;4856685;29;20041;-90
2024/01/12 07:55:27;;;;;;;9.23;6.25;;;;;;;16.22;37.73;94146.94;4860505;29;20044;-89
2024/01/12 07:57:53;;;;;;;8.02;5.70;;;;;;;16.18;37.68;94152.59;4875750;29;20139;-89
2024/01/12 08:00:18;;;;;;;8.75;6.53;;;;;;;16.11;37.86;94153.00;4849440;29;20059;-88
2024/01/12 08:02:44;;;;;;;8.45;6.25;;;;;;;16.10;37.57;94152.25;4875483;29;20804;-91
2024/01/12 08:05:09;;;;;;;7.80;6.05;;;;;;;16.08;37.91;94151.22;4872761;29;20525;-91
2024/01/12 08:07:37;;;;;;;10.35;6.65;;;;;;;16.16;37.56;94155.06;4869791;29;20036;-87
2024/01/12 08:10:06;;;;;;;8.40;6.13;;;;;;;16.17;37.71;94159.28;4869915;29;20044;-90
2024/01/12 08:12:32;;;;;;;9.52;5.85;;;;;;;16.23;38.32;94154.66;4856563;29;20047;-88
2024/01/12 08:14:57;;;;;;;7.22;5.10;;;;;;;16.15;37.89;94150.09;4878690;29;20052;-88
2024/01/12 08:17:22;;;;;;;7.97;5.60;;;;;;;16.20;37.58;94163.03;4890300;29;20380;-88
2024/01/12 08:19:48;;;;;;;8.88;6.15;;;;;;;16.26;37.69;94166.56;4882977;29;20045;-88
2024/01/12 08:22:14;;;;;;;7.40;5.57;;;;;;;16.21;37.59;94170.00;4893195;29;20040;-88
2024/01/12 08:24:40;;;;;;;13.52;6.75;;;;;;;16.19;37.35;94167.75;4870026;29;20045;-89
2024/01/12 08:27:08;;;;;;;8.85;5.65;;;;;;;16.24;37.46;94161.59;4883739;29;20451;-91
2024/01/12 08:29:33;;;;;;;8.30;6.18;;;;;;;16.17;37.67;94174.91;4899216;29;20064;-89
2024/01/12 08:31:59;;;;;;;8.25;4.80;;;;;;;16.17;37.60;94166.72;4873518;29;20041;-87
2024/01/12 08:34:27;;;;;;;6.47;5.25;;;;;;;16.17;37.72;94175.66;4889045;29;20926;-87
2024/01/12 08:36:53;;;;;;;10.88;6.43;;;;;;;16.21;37.59;94167.28;4889424;29;20048;-85
2024/01/12 08:39:18;;;;;;;12.13;5.72;;;;;;;16.18;37.72;94168.97;4906903;29;20048;-87
2024/01/12 08:41:44;;;;;;;9.05;6.05;;;;;;;16.27;37.48;94173.53;4892286;29;20036;-88
2024/01/12 08:44:11;;;;;;;7.30;5.07;;;;;;;16.24;37.48;94175.22;4874599;29;20061;-87
2024/01/12 08:46:37;;;;;;;9.77;6.25;;;;;;;16.28;37.54;94175.03;4885347;29;20135;-90
2024/01/12 08:49:16;;;;;;;9.48;5.68;;;;;;;16.30;37.34;94176.06;5080545;27;1322316;-87
2024/01/12 08:51:42;;;;;;;7.07;4.90;;;;;;;16.23;37.70;94183.91;5089162;28;20505;-86
2024/01/12 08:54:07;;;;;;;6.68;5.18;;;;;;;16.22;37.59;94179.69;5077754;28;20102;-90
2024/01/12 08:56:33;;;;;;;5.68;4.53;;;;;;;16.22;37.81;94176.97;5065608;28;20051;-88
2024/01/12 08:58:59;;;;;;;7.05;5.15;;;;;;;16.25;37.43;94179.47;5065666;28;20040;-87
2024/01/12 09:01:24;;;;;;;6.53;4.82;;;;;;;16.22;37.57;94185.13;5066209;28;20054;-90
2024/01/12 09:03:50;;;;;;;7.63;4.97;;;;;;;16.25;37.49;94187.63;5075264;28;20032;-88
2024/01/12 09:06:15;;;;;;;8.18;4.35;;;;;;;16.27;37.50;94189.88;5083318;27;20036;-86
2024/01/12 09:08:41;;;;;;;5.90;4.53;;;;;;;16.27;37.48;94192.63;5067635;28;20081;-87
2024/01/12 09:11:07;;;;;;;8.35;5.18;;;;;;;16.21;37.70;94194.56;5058317;28;20048;-87
2024/01/12 09:13:33;;;;;;;7.40;5.00;;;;;;;16.30;37.34;94192.41;5069786;27;20053;-88
2024/01/12 09:15:59;;;;;;;6.45;4.28;;;;;;;16.25;37.69;94198.56;5085036;28;20031;-87
2024/01/12 09:18:24;;;;;;;8.70;5.07;;;;;;;16.32;37.51;94194.66;5063291;28;20036;-86
2024/01/12 09:20:50;;;;;;;7.07;4.60;;;;;;;16.23;37.46;94192.09;5050472;28;20104;-86
2024/01/12 09:23:15;;;;;;;6.30;4.18;;;;;;;16.25;37.68;94181.44;5064991;28;20036;-87
2024/01/12 09:25:41;;;;;;;7.25;4.22;;;;;;;16.25;37.71;94181.44;5079731;28;20441;-87
2024/01/12 09:28:07;;;;;;;6.80;4.53;;;;;;;16.20;37.77;94182.88;5075473;28;20043;-88
2024/01/12 09:30:34;;;;;;;6.30;4.47;;;;;;;16.22;37.56;94196.81;5072627;28;20040;-87
2024/01/12 09:33:00;;;;;;;6.47;4.10;;;;;;;16.25;37.50;94189.63;5087557;28;20118;-88
2024/01/12 09:35:25;;;;;;;7.60;4.93;;;;;;;16.24;37.48;94194.31;5084893;28;20045;-87
2024/01/12 09:37:51;;;;;;;4.70;4.03;;;;;;;16.25;37.65;94195.81;5083950;28;20040;-89
2024/01/12 09:40:17;;;;;;;5.95;4.47;;;;;;;16.27;37.54;94204.28;5079350;28;20043;-87
2024/01/12 09:42:44;;;;;;;6.53;4.93;;;;;;;16.30;37.63;94205.31;5073730;28;20148;-87
2024/01/12 09:45:12;;;;;;;6.40;4.47;;;;;;;16.32;37.39;94198.16;5083328;28;20048;-88
2024/01/12 09:47:37;;;;;;;6.70;4.93;;;;;;;16.26;37.29;94197.31;5064310;28;20048;-86
2024/01/12 09:50:04;;;;;;;5.30;3.63;;;;;;;16.26;37.71;94210.97;5099748;28;20100;-88
2024/01/12 09:52:31;;;;;;;5.70;4.32;;;;;;;16.24;37.75;94207.97;5085601;28;20090;-87
2024/01/12 09:54:57;;;;;;;5.22;3.95;;;;;;;16.28;37.63;94202.31;5065456;28;20113;-87
2024/01/12 09:57:22;;;;;;;5.63;4.03;;;;;;;16.29;37.83;94192.91;5083068;27;20047;-88
2024/01/12 09:59:48;;;;;;;6.25;4.55;;;;;;;16.30;37.80;94189.69;5060354;28;20845;-88
2024/01/12 10:02:13;;;;;;;5.70;4.18;;;;;;;16.27;37.47;94179.72;5060170;28;20048;-87
2024/01/12 10:04:40;;;;;;;7.45;4.47;;;;;;;16.28;37.70;94173.03;5011764;28;20033;-87
2024/01/12 10:07:07;;;;;;;6.80;4.63;;;;;;;16.32;37.45;94179.06;5008419;28;20536;-87
2024/01/12 10:09:32;;;;;;;7.38;4.68;;;;;;;16.23;37.67;94187.38;5029957;28;20752;-87
2024/01/12 10:11:58;;;;;;;6.97;4.53;;;;;;;16.25;37.87;94184.16;5022454;28;20132;-90
2024/01/12 10:14:25;;;;;;;5.50;4.15;;;;;;;16.28;37.76;94181.22;5006420;28;20049;-88
2024/01/12 10:16:56;;;;;;;6.68;4.78;;;;;;;16.26;37.69;94185.66;4996037;28;20568;-89
2024/01/12 10:19:23;;;;;;;7.03;4.80;;;;;;;16.29;37.69;94174.56;5027055;28;20510;-90
2024/01/12 10:21:48;;;;;;;7.72;5.45;;;;;;;16.35;37.83;94171.88;5018807;28;20561;-88
2024/01/12 10:24:16;;;;;;;6.25;4.72;;;;;;;16.27;37.65;94168.06;5041701;28;20051;-88
2024/01/12 10:26:41;;;;;;;7.47;4.82;;;;;;;16.31;38.01;94174.06;5027624;28;21709;-88
2024/01/12 10:29:07;;;;;;;6.97;5.10;;;;;;;16.30;37.74;94178.03;5022450;28;20041;-88
2024/01/12 10:31:39;;;;;;;7.93;4.30;;;;;;;16.26;37.87;94166.56;5030323;28;20044;-88
2024/01/12 10:34:04;;;;;;;6.65;4.22;;;;;;;16.36;37.58;94168.69;5017414;28;20572;-87
2024/01/12 10:36:30;;;;;;;6.05;4.38;;;;;;;16.37;37.55;94172.91;5035204;28;20047;-87
2024/01/12 10:38:57;;;;;;;4.88;3.80;;;;;;;16.30;37.56;94173.31;5074166;28;20036;-85
2024/01/12 10:41:23;;;;;;;6.68;4.45;;;;;;;16.35;37.30;94169.16;5068341;28;20524;-88
2024/01/12 10:43:53;;;;;;;6.18;4.00;;;;;;;16.33;37.55;94169.63;5060409;28;20056;-88
2024/01/12 10:46:40;;;;;;;7.13;4.97;;;;;;;16.36;37.70;94165.97;5071729;28;20035;-88
2024/01/12 10:49:13;;;;;;;5.95;4.18;;;;;;;16.25;37.72;94165.81;5059697;28;20052;-86
2024/01/12 10:51:41;;;;;;;4.50;3.55;;;;;;;16.27;37.80;94157.16;5067106;28;20048;-87
2024/01/12 10:54:20;;;;;;;6.10;3.78;;;;;;;16.29;37.54;94152.72;5050642;28;20097;-87
2024/01/12 10:56:45;;;;;;;5.97;4.45;;;;;;;16.36;38.02;94152.31;5057334;28;20028;-87
2024/01/12 10:59:11;;;;;;;6.85;4.53;;;;;;;16.34;37.91;94148.56;5062707;28;20734;-88
2024/01/12 11:01:37;;;;;;;5.45;4.05;;;;;;;16.30;37.42;94148.75;5070762;28;20071;-87
2024/01/12 11:04:03;;;;;;;4.50;3.63;;;;;;;16.40;37.41;94149.38;5039919;28;20036;-86
2024/01/12 11:06:29;;;;;;;6.82;4.40;;;;;;;16.36;37.27;94135.19;5045704;28;20043;-86
2024/01/12 11:08:55;;;;;;;487.98;423.55;;;;;;;16.39;37.61;94123.31;5067418;28;20036;-87
2024/01/12 11:11:21;;;;;;;8.77;5.95;;;;;;;16.38;37.65;94114.38;5020548;28;20546;-86
2024/01/12 11:13:47;;;;;;;54.35;38.47;;;;;;;16.41;37.54;94126.31;5036768;28;20051;-87
2024/01/12 11:16:12;;;;;;;22.30;14.20;;;;;;;16.43;37.49;94123.88;5045841;28;20048;-86
2024/01/12 11:18:38;;;;;;;10.60;7.43;;;;;;;16.34;37.42;94129.47;5028978;28;20048;-87